الصفحة الرئيسية
METAR-TAF:

METAR-TAF

مطار :

مطار أسوان الدولي

أسوان, مصر

دائرة عرض: 23-58N, خط طول: 032-47E, ارتفاع: 200 متر

مراقبة الطقس الحالي

تاريخ ووقت الإصدار 2ساعات و 29 دقيقة قبل الساعة 20:00UTC
ريح 8 عقدة من الجنوب
درجة الحرارة 27°درجة مئوية
الرطوبة 32%
ضغط 1005 hPa
الرؤية 10 كم أو أكثر
الغيوم لا تقل 1500 م ولا وجود لمزنة ركامية السحاب الأسود

METAR: HESN 232000Z 17008KT CAVOK 27/09 Q1005 NOSIG

زمن: 00:29 (22:29 UTC)

توقعات

تاريخ ووقت الإصدار 5ساعات و 29 دقيقة قبل الساعة 17:00UTC
التوقعات صالحة من23 الساعة 18 UTC إلى 24 الساعة 24 UTC
ريح 10 عقدة من الشمال
الرؤية 10 كم أو أكثر
الغيوم لا تقل 1500 م ولا وجود لمزنة ركامية السحاب الأسود

TAF: HESN 231700Z 2318/2424 35010KT CAVOK

أرصاد الطقس والتوقعات من أكثر من 4000 مطار (تقارير الطقس للمطار METAR والتنبؤ بالطقس بالمطارTAF).

المحطات المتاحة هي النقط الصفراء والحمراء على الخريطة.

حرك المؤشر فوق النقطة لمعرفة اسم المحطة.

ثم انقر لمعرفة أرصاد وتوقعات الطقس.

لتغيير الخارطة: اضغط على الأزرار الخضراء مع رمز الصليب الأسود للتكبير. على الزر الأخضر مع شرطة للتصغير، أو على الأسهم الخضراء للخرائط المجاورة.


METAR-TAF: